Terminal Aerodrome Forecast
Issued by NWS Twin Cities, MN

Home | Current Version | Previous Version | Text Only | Print | Product List | Glossary Off
Versions: 1 2 3 4 5 6 7 8 9 10 11 12 13 14 15 16 17 18 19

903
FTUS43 KMPX 141510 AAA
TAFEAU
TAF AMD
KEAU 141510Z 1415/1512 06008KT P6SM SCT040 OVC120
     FM141900 08008KT P6SM -SHRA OVC035
     FM142100 07008G13KT P6SM -SHRA BKN020
     FM150000 07012G17KT 6SM -SHRA BR OVC008
     FM150800 34014G22KT P6SM -RA OVC015=

USA.gov is the U.S. government's official web portal to all federal, state and local government web resources and services.